{
  "fields": [{"type":"int","id":"_id"},{"info":{"type_override":"text","notes":"Hora UTC de lectura de los datos (AAAA-MM-DD HH:mm:SS)(+1 para CET invierno, +2 para CET verano)","label":"date"},"type":"text","id":"TIMESTAMP"},{"info":{"type_override":"text","notes":"Record Number - identificador del registro","label":"int"},"type":"text","id":"RECORD"},{"info":{"type_override":"text","notes":"Velocidad media del viento en el periodo de 10 minutos leído","label":"float"},"type":"text","id":"VV_S_WVT"},{"info":{"type_override":"text","notes":"Dirección media del viento en el periodo de 10 minutos leído","label":"float"},"type":"text","id":"DV_D1_WVT"},{"info":{"type_override":"text","notes":"Velocidad máxima del viento en el periodo de 10 minutos leído","label":"float"},"type":"text","id":"VV10m3Seg_Max"},{"info":{"type_override":"text","notes":"Dirección de la racha máxima del viento en el periodo de 10 minutos leído","label":"text"},"type":"text","id":"DV10m3Seg_SMM"},{"info":{"type_override":"text","notes":"Presión atmosférica media en el periodo de 10 minutos leído","label":"text"},"type":"text","id":"PRE_Avg"},{"info":{"type_override":"text","notes":"Temperatura del aire media en el periodo de 10 minutos leído","label":"text"},"type":"text","id":"TEM_Avg"},{"info":{"type_override":"text","notes":"Humedad relativa del aire promedio en el periodo de 10 minutos leído","label":"text"},"type":"text","id":"HUM_Avg"},{"info":{"type_override":"text","notes":"Radiación solar media en el periodo de 10 minutos leído","label":"text"},"type":"text","id":"RAD_Avg"},{"info":{"type_override":"text","notes":"Precipitación acumulada en el periodo de 10 minutos leído","label":"text"},"type":"text","id":"PLU_Tot"}],
  "records": [
    [1718011,"2026-08-31 00:00:00","6577","1.4980000000000002","226.1","2.221","216.1","1017.212","25.32","59.24","0.0","0"],
    [1718012,"2026-08-31 00:10:00","6578","1.4180000000000001","229.3","2.0909999999999997","226.1","1017.22","25.41","59.94","0.0","0"],
    [1718013,"2026-08-31 00:20:00","6579","1.546","232.7","2.319","231.7","1017.2389999999999","25.42","59.84","0.0","0"],
    [1718014,"2026-08-31 00:30:00","6580","1.253","243.2","2.0580000000000003","236.3","1017.304","25.28","60.3","0.0","0"],
    [1718015,"2026-08-31 00:40:00","6581","1.2930000000000001","259.9","2.417","225.3","1017.307","24.85","60.82","0.0","0"],
    [1718016,"2026-08-31 00:50:00","6582","1.042","222.8","2.287","234.9","1017.3330000000001","24.83","62.84","0.0","0"],
    [1718017,"2026-08-31 01:00:00","6583","1.3090000000000002","249.3","1.895","239.5","1017.341","24.66","61.66","0.0","0"],
    [1718018,"2026-08-31 01:10:00","6584","1.311","261.1","2.287","220.7","1017.326","24.36","61.04","0.0","0"],
    [1718019,"2026-08-31 01:20:00","6585","1.49","270.4","2.287","224.2","1017.373","24.33","62.36","0.0","0"],
    [1718020,"2026-08-31 01:30:00","6586","1.787","265.6","2.45","270.0","1017.432","24.26","62.81","0.0","0"],
    [1718021,"2026-08-31 01:40:00","6587","1.168","253.3","2.0909999999999997","264.0","1017.446","24.35","62.24","0.0","0"],
    [1718022,"2026-08-31 01:50:00","6588","0.9840000000000001","253.2","1.274","249.7","1017.4069999999999","24.35","61.52","0.0","0"],
    [1718023,"2026-08-31 02:00:00","6589","0.903","248.4","1.274","250.0","1017.414","24.33","61.34","0.0","0"],
    [1718024,"2026-08-31 02:10:00","6590","0.491","239.8","1.013","238.9","1017.44","24.38","61.82","0.0","0"],
    [1718025,"2026-08-31 02:20:00","6591","0.608","251.4","1.47","249.5","1017.443","24.43","62.8","0.0","0"],
    [1718026,"2026-08-31 02:30:00","6592","0.938","250.2","1.633","266.9","1017.393","24.43","63.58","0.0","0"],
    [1718027,"2026-08-31 02:40:00","6593","1.9080000000000001","266.3","2.417","267.9","1017.427","24.32","62.9","0.0","0"],
    [1718028,"2026-08-31 02:50:00","6594","1.931","278.2","2.385","275.7","1017.454","24.19","64.08","0.0","0"],
    [1718029,"2026-08-31 03:00:00","6595","1.6","290.5","2.0580000000000003","292.9","1017.4760000000001","24.18","65.09","0.0","0"],
    [1718030,"2026-08-31 03:10:00","6596","1.284","268.4","1.797","270.8","1017.513","24.34","66.03","0.0","0"],
    [1718031,"2026-08-31 03:20:00","6597","1.3419999999999999","265.1","1.8619999999999999","277.4","1017.5139999999999","24.51","66.71","0.0","0"],
    [1718032,"2026-08-31 03:30:00","6598","1.681","268.1","1.993","259.8","1017.508","24.23","66.17","0.0","0"],
    [1718033,"2026-08-31 03:40:00","6599","1.675","264.7","1.96","265.1","1017.55","24.09","66.0","0.0","0"],
    [1718034,"2026-08-31 03:50:00","6600","1.595","272.3","1.96","266.0","1017.555","24.03","66.4","0.0","0"],
    [1718035,"2026-08-31 04:00:00","6601","1.157","267.9","1.601","277.7","1017.558","24.34","68.68","0.0","0"],
    [1718036,"2026-08-31 04:10:00","6602","1.196","270.8","1.568","275.2","1017.5369999999999","24.41","69.07","0.0","0"],
    [1718037,"2026-08-31 04:20:00","6603","1.212","268.9","1.5030000000000001","261.5","1017.5219999999999","24.2","68.94","0.0","0"],
    [1718038,"2026-08-31 04:30:00","6604","0.789","251.1","1.5030000000000001","255.2","1017.523","24.06","69.24","0.0","0"],
    [1718039,"2026-08-31 04:40:00","6605","0.0","0.0","0.0","0.0","1017.576","24.23","70.8","0.0","0"],
    [1718040,"2026-08-31 04:50:00","6606","0.0","0.0","0.0","0.0","1017.6210000000001","24.42","71.57","0.0","0"],
    [1718041,"2026-08-31 05:00:00","6607","0.62","246.3","1.143","243.4","1017.653","23.85","70.13","0.0","0"],
    [1718042,"2026-08-31 05:10:00","6608","1.169","256.8","2.0580000000000003","267.1","1017.675","23.46","69.54","0.0","0"],
    [1718043,"2026-08-31 05:20:00","6609","1.073","249.2","1.895","265.4","1017.7339999999999","23.26","68.95","1.8319999999999999","0"],
    [1718044,"2026-08-31 05:30:00","6610","1.786","261.3","2.613","261.4","1017.82","23.22","68.17","7.534","0"],
    [1718045,"2026-08-31 05:40:00","6611","2.7560000000000002","264.3","3.6260000000000003","256.3","1017.93","23.23","67.02","23.65","0"],
    [1718046,"2026-08-31 05:50:00","6612","2.623","264.0","3.397","258.9","1018.0139999999999","23.49","65.85","45.8","0"],
    [1718047,"2026-08-31 06:00:00","6613","2.605","260.2","3.136","262.2","1018.153","23.9","64.86","71.53","0"],
    [1718048,"2026-08-31 06:10:00","6614","1.44","251.6","2.515","259.1","1018.355","24.3","64.49","98.4","0"],
    [1718049,"2026-08-31 06:20:00","6615","0.102","240.5","1.2409999999999999","263.7","1018.4730000000001","25.04","64.36","124.3","0"],
    [1718050,"2026-08-31 06:30:00","6616","0.03","262.9","0.6859999999999999","287.9","1018.56","25.58","62.75","151.5","0"],
    [1718051,"2026-08-31 06:40:00","6617","0.47200000000000003","296.3","1.7309999999999999","273.8","1018.659","25.84","63.31","180.7","0"],
    [1718052,"2026-08-31 06:50:00","6618","0.593","300.5","1.7309999999999999","273.8","1018.7819999999999","25.83","57.87","210.8","0"],
    [1718053,"2026-08-31 07:00:00","6619","0.0","0.0","0.0","0.0","1018.8639999999999","25.75","60.84","239.3","0"],
    [1718054,"2026-08-31 07:10:00","6620","0.0","0.0","0.0","0.0","1018.937","25.56","62.7","272.3","0"],
    [1718055,"2026-08-31 07:20:00","6621","0.568","92.3","1.699","93.2","1018.992","25.59","65.19","307.5","0"],
    [1718056,"2026-08-31 07:30:00","6622","0.805","31.09","1.3719999999999999","93.9","1018.988","25.2","66.23","343.5","0"],
    [1718057,"2026-08-31 07:40:00","6623","1.4569999999999999","350.1","4.051","80.8","1019.0089999999999","25.1","68.52","371.3","0"],
    [1718058,"2026-08-31 07:50:00","6624","2.394","73.98","3.7239999999999998","69.41","1019.1439999999999","24.88","67.08","403.2","0"],
    [1718059,"2026-08-31 08:00:00","6625","1.714","44.75","2.842","44.1","1019.195","25.17","66.74","430.6","0"],
    [1718060,"2026-08-31 08:10:00","6626","3.425","46.04","4.181","47.24","1019.294","24.94","66.32","461.0","0"],
    [1718061,"2026-08-31 08:20:00","6627","3.627","52.17","4.377","66.38","1019.3919999999999","24.93","66.24","494.0","0"],
    [1718062,"2026-08-31 08:30:00","6628","2.9010000000000002","47.73","3.9530000000000003","52.96","1019.4839999999999","25.07","67.29","526.5","0"],
    [1718063,"2026-08-31 08:40:00","6629","2.479","54.04","3.299","42.71","1019.534","25.16","67.39","555.2","0"],
    [1718064,"2026-08-31 08:50:00","6630","1.7630000000000001","70.26","3.43","61.48","1019.6419999999999","25.53","66.27","580.4","0"],
    [1718065,"2026-08-31 09:00:00","6631","0.9390000000000001","64.92","1.9269999999999998","82.4","1019.702","26.05","65.68","604.3","0"],
    [1718066,"2026-08-31 09:10:00","6632","1.581","64.91","2.875","73.34","1019.742","26.05","66.2","631.0","0"],
    [1718067,"2026-08-31 09:20:00","6633","2.201","58.8","3.495","52.22","1019.803","25.92","68.35","655.3","0"],
    [1718068,"2026-08-31 09:30:00","6634","1.8230000000000002","54.73","2.9730000000000003","47.57","1019.797","25.89","70.35","673.2","0"],
    [1718069,"2026-08-31 09:40:00","6635","2.608","76.93","4.083","76.16","1019.743","26.14","70.35","696.3","0"],
    [1718070,"2026-08-31 09:50:00","6636","3.392","85.6","4.4430000000000005","83.2","1019.706","25.97","72.5","717.8","0"],
    [1718071,"2026-08-31 10:00:00","6637","3.5410000000000004","89.9","4.475","89.0","1019.7130000000001","25.95","73.28","736.2","0"],
    [1718072,"2026-08-31 10:10:00","6638","3.452","93.7","4.41","102.0","1019.7360000000001","25.91","73.61","753.2","0"],
    [1718073,"2026-08-31 10:20:00","6639","3.438","99.4","4.671","108.2","1019.711","25.93","73.99","769.7","0"],
    [1718074,"2026-08-31 10:30:00","6640","3.818","107.3","4.737","110.0","1019.7660000000001","25.92","74.81","785.2","0"],
    [1718075,"2026-08-31 10:40:00","6641","4.04","115.8","4.704","108.8","1019.8","25.93","74.81","799.0","0"],
    [1718076,"2026-08-31 10:50:00","6642","3.861","115.6","4.933","112.3","1019.807","25.92","75.69","811.0","0"],
    [1718077,"2026-08-31 11:00:00","6643","3.903","115.9","4.704","113.4","1019.805","25.95","75.34","823.0","0"],
    [1718078,"2026-08-31 11:10:00","6644","3.8280000000000003","116.3","4.475","107.5","1019.7860000000001","25.89","75.16","831.0","0"],
    [1718079,"2026-08-31 11:20:00","6645","3.3760000000000003","121.5","4.181","109.2","1019.725","26.04","75.46","837.0","0"],
    [1718080,"2026-08-31 11:30:00","6646","3.3569999999999998","117.2","4.181","113.5","1019.779","26.11","75.84","841.0","0"],
    [1718081,"2026-08-31 11:40:00","6647","2.9589999999999996","117.5","3.6910000000000003","121.5","1019.7610000000001","26.15","76.19","844.0","0"],
    [1718082,"2026-08-31 11:50:00","6648","2.45","118.7","3.528","121.8","1019.7180000000001","26.38","76.34","845.0","0"],
    [1718083,"2026-08-31 12:00:00","6649","2.415","131.0","4.965","133.4","1019.697","26.55","76.87","846.0","0"],
    [1718084,"2026-08-31 12:10:00","6650","2.102","125.4","2.842","131.3","1019.664","26.61","77.57","845.0","0"],
    [1718085,"2026-08-31 12:20:00","6651","2.282","131.0","3.103","139.9","1019.559","26.72","78.28","842.0","0"],
    [1718086,"2026-08-31 12:30:00","6652","2.3819999999999997","130.1","3.528","140.9","1019.502","26.81","78.09","838.0","0"],
    [1718087,"2026-08-31 12:40:00","6653","2.63","140.0","3.463","140.7","1019.5260000000001","26.91","76.98","833.0","0"],
    [1718088,"2026-08-31 12:50:00","6654","4.3660000000000005","143.6","5.945","140.1","1019.4630000000001","27.01","73.13","809.0","0"],
    [1718089,"2026-08-31 13:00:00","6655","4.828","151.1","5.978","150.0","1019.3539999999999","27.08","71.87","821.0","0"],
    [1718090,"2026-08-31 13:10:00","6656","5.377000000000001","154.1","6.501","153.4","1019.3510000000001","27.09","71.36","809.0","0"],
    [1718091,"2026-08-31 13:20:00","6657","5.367999999999999","159.9","6.599","168.8","1019.408","27.18","71.2","798.4","0"],
    [1718092,"2026-08-31 13:30:00","6658","6.04","161.0","6.827000000000001","160.9","1019.3739999999999","27.09","72.64","782.6","0"],
    [1718093,"2026-08-31 13:40:00","6659","6.176","163.8","7.187","165.5","1019.3","27.06","72.49","767.7","0"],
    [1718094,"2026-08-31 13:50:00","6660","6.146","162.7","8.07","170.6","1019.26","27.13","72.46","754.6","0"],
    [1718095,"2026-08-31 14:00:00","6661","6.7139999999999995","168.1","7.971","169.6","1019.2410000000001","27.07","73.67","738.1","0"],
    [1718096,"2026-08-31 14:10:00","6662","6.16","171.7","7.317","167.7","1019.284","27.0","74.3","716.4","0"],
    [1718097,"2026-08-31 14:20:00","6663","5.561","172.7","6.925","175.5","1019.238","27.15","73.44","693.6","0"],
    [1718098,"2026-08-31 14:30:00","6664","5.789","174.5","6.9910000000000005","175.2","1019.175","27.26","71.63","666.5","0"],
    [1718099,"2026-08-31 14:40:00","6665","5.901","173.2","7.252000000000001","174.9","1019.1289999999999","27.16","72.48","650.2","0"],
    [1718100,"2026-08-31 14:50:00","6666","6.06","170.3","6.86","165.8","1019.12","26.95","72.44","619.4","0"],
    [1718101,"2026-08-31 15:00:00","6667","5.782","173.7","6.957999999999999","171.4","1019.153","26.97","69.91","586.1","0"],
    [1718102,"2026-08-31 15:10:00","6668","5.59","175.2","7.218999999999999","168.6","1019.179","27.1","69.2","556.7","0"],
    [1718103,"2026-08-31 15:20:00","6669","5.393","175.2","6.925","172.0","1019.182","27.04","68.63","531.4","0"],
    [1718104,"2026-08-31 15:30:00","6670","5.335","175.3","6.501","178.7","1019.2180000000001","27.08","68.95","503.6","0"],
    [1718105,"2026-08-31 15:40:00","6671","5.227","176.1","6.5329999999999995","182.8","1019.171","26.93","69.41","473.8","0"],
    [1718106,"2026-08-31 15:50:00","6672","5.516","174.1","6.566","173.3","1019.1569999999999","26.9","70.4","444.4","0"],
    [1718107,"2026-08-31 16:00:00","6673","4.838","178.2","6.631","174.6","1019.1310000000001","26.87","72.0","415.7","0"],
    [1718108,"2026-08-31 16:10:00","6674","4.867","177.5","6.729","176.1","1019.08","26.9","71.11","386.6","0"],
    [1718109,"2026-08-31 16:20:00","6675","4.542","176.0","5.4879999999999995","167.0","1019.0110000000001","26.76","71.54","355.4","0"],
    [1718110,"2026-08-31 16:30:00","6676","4.763","173.4","6.042999999999999","173.5","1018.965","26.69","71.35","320.2","0"],
    [1718111,"2026-08-31 16:40:00","6677","4.253","172.7","5.422999999999999","166.3","1018.903","26.58","71.8","283.8","0"],
    [1718112,"2026-08-31 16:50:00","6678","3.905","172.4","4.933","174.8","1018.875","26.53","72.82","246.9","0"],
    [1718113,"2026-08-31 17:00:00","6679","3.9939999999999998","170.1","4.4430000000000005","172.1","1018.811","26.42","73.98","212.3","0"],
    [1718114,"2026-08-31 17:10:00","6680","4.145","171.0","5.227","184.4","1018.77","26.33","74.05","179.7","0"],
    [1718115,"2026-08-31 17:20:00","6681","3.985","169.7","4.965","187.5","1018.757","26.34","73.5","148.6","0"],
    [1718116,"2026-08-31 17:30:00","6682","3.767","167.6","4.606","169.6","1018.7189999999999","26.33","73.95","120.6","0"],
    [1718117,"2026-08-31 17:40:00","6683","4.301","161.6","4.933","157.2","1018.711","26.17","73.59","93.8","0"],
    [1718118,"2026-08-31 17:50:00","6684","4.239","162.0","5.292000000000001","157.3","1018.735","26.18","73.56","69.97","0"],
    [1718119,"2026-08-31 18:00:00","6685","3.898","169.9","4.835","173.1","1018.725","26.17","74.32","47.73","0"],
    [1718120,"2026-08-31 18:10:00","6686","4.144","162.9","5.4879999999999995","165.4","1018.7439999999999","26.15","74.93","25.21","0"],
    [1718121,"2026-08-31 18:20:00","6687","4.033","163.1","4.965","166.9","1018.8560000000001","26.08","75.37","10.61","0"],
    [1718122,"2026-08-31 18:30:00","6688","3.859","158.0","5.063","152.7","1018.883","26.01","75.46","3.196","0"],
    [1718123,"2026-08-31 18:40:00","6689","3.347","160.0","4.377","158.9","1018.933","25.94","77.32","0.26","0"],
    [1718124,"2026-08-31 18:50:00","6690","3.3510000000000004","154.3","4.149","158.3","1019.0260000000001","25.85","76.68","0.0","0"],
    [1718125,"2026-08-31 19:00:00","6691","3.1719999999999997","150.1","4.2139999999999995","146.4","1019.175","25.84","76.1","0.0","0"],
    [1718126,"2026-08-31 19:10:00","6692","2.702","145.1","3.593","147.1","1019.306","25.84","76.83","0.0","0"],
    [1718127,"2026-08-31 19:20:00","6693","2.376","134.6","3.5610000000000004","124.9","1019.421","25.68","77.15","0.0","0"],
    [1718128,"2026-08-31 19:30:00","6694","2.344","131.3","3.103","144.8","1019.563","25.72","76.82","0.0","0"],
    [1718129,"2026-08-31 19:40:00","6695","2.191","106.2","2.9730000000000003","109.3","1019.7439999999999","25.71","77.88","0.0","0"],
    [1718130,"2026-08-31 19:50:00","6696","2.753","106.1","3.463","111.5","1019.873","25.56","79.55","0.0","0"],
    [1718131,"2026-08-31 20:00:00","6697","2.6189999999999998","103.1","3.43","102.4","1019.928","25.41","80.2","0.0","0"],
    [1718132,"2026-08-31 20:10:00","6698","2.32","95.9","3.234","105.1","1020.0089999999999","25.48","78.52","0.0","0"],
    [1718133,"2026-08-31 20:20:00","6699","2.238","87.3","2.9730000000000003","88.0","1020.15","25.57","78.77","0.0","0"],
    [1718134,"2026-08-31 20:30:00","6700","2.218","80.9","3.495","82.6","1020.243","25.5","78.76","0.0","0"],
    [1718135,"2026-08-31 20:40:00","6701","2.187","79.99","3.234","80.6","1020.42","25.49","78.98","0.0","0"],
    [1718136,"2026-08-31 20:50:00","6702","2.011","86.4","2.7110000000000003","88.6","1020.507","25.45","79.19","0.0","0"],
    [1718137,"2026-08-31 21:00:00","6703","1.925","81.0","3.005","87.1","1020.508","25.44","79.75","0.0","0"],
    [1718138,"2026-08-31 21:10:00","6704","2.144","89.0","2.842","90.5","1020.567","25.36","80.2","0.0","0"],
    [1718139,"2026-08-31 21:20:00","6705","1.9569999999999999","89.7","3.071","88.2","1020.6160000000001","25.31","79.0","0.0","0"],
    [1718140,"2026-08-31 21:30:00","6706","1.5919999999999999","84.9","2.287","87.5","1020.6510000000001","25.36","78.4","0.0","0"],
    [1718141,"2026-08-31 21:40:00","6707","1.357","83.4","2.0580000000000003","63.54","1020.653","25.38","78.21","0.0","0"],
    [1718142,"2026-08-31 21:50:00","6708","1.101","83.0","1.7309999999999999","86.3","1020.7460000000001","25.36","78.46","0.0","0"],
    [1718143,"2026-08-31 22:00:00","6709","0.97","65.62","1.2409999999999999","58.49","1020.76","25.33","78.26","0.0","0"],
    [1718144,"2026-08-31 22:10:00","6710","1.256","61.0","1.764","55.94","1020.7610000000001","25.36","77.42","0.0","0"],
    [1718145,"2026-08-31 22:20:00","6711","1.0190000000000001","56.01","1.601","42.4","1020.802","25.41","76.58","0.0","0"],
    [1718146,"2026-08-31 22:30:00","6712","0.871","39.89","1.7309999999999999","62.4","1020.796","25.38","77.6","0.0","0"],
    [1718147,"2026-08-31 22:40:00","6713","0.586","36.43","0.915","32.12","1020.85","25.18","78.87","0.0","0"],
    [1718148,"2026-08-31 22:50:00","6714","0.37200000000000005","45.23","0.8170000000000001","50.13","1020.8919999999999","25.12","78.56","0.0","0"],
    [1718149,"2026-08-31 23:00:00","6715","0.078","43.11","0.457","28.56","1020.951","25.07","78.13","0.0","0"],
    [1718150,"2026-08-31 23:10:00","6716","0.282","24.22","0.653","24.09","1020.8889999999999","25.03","78.48","0.0","0"],
    [1718151,"2026-08-31 23:20:00","6717","0.217","17.17","0.784","12.86","1020.905","24.95","78.95","0.0","0"],
    [1718152,"2026-08-31 23:30:00","6718","0.564","10.11","0.8490000000000001","7.059","1020.903","24.92","78.25","0.0","0"],
    [1718153,"2026-08-31 23:40:00","6719","0.542","358.4","0.7190000000000001","7.157","1020.9860000000001","24.97","77.14","0.0","0"],
    [1718154,"2026-08-31 23:50:00","6720","0.545","0.706","0.7509999999999999","3.012","1021.045","24.97","75.09","0.0","0"],
    [1718155,"2026-09-01 00:00:00","6721","0.653","315.9","0.7509999999999999","328.2","1021.04","25.07","74.09","0.0","0"],
    [1718156,"2026-09-01 00:10:00","6722","0.743","260.9","1.078","255.6","1021.058","25.28","73.43","0.0","0"],
    [1718157,"2026-09-01 00:20:00","6723","0.7879999999999999","265.9","1.568","281.8","1021.053","25.34","72.04","0.0","0"],
    [1718158,"2026-09-01 00:30:00","6724","1.178","272.3","1.535","273.6","1020.99","25.38","71.84","0.0","0"],
    [1718159,"2026-09-01 00:40:00","6725","1.354","278.7","1.666","278.8","1020.949","25.39","71.49","0.0","0"],
    [1718160,"2026-09-01 00:50:00","6726","1.5490000000000002","285.5","2.0580000000000003","275.6","1020.933","25.46","71.03","0.0","0"],
    [1718161,"2026-09-01 01:00:00","6727","1.621","286.9","2.123","291.4","1020.887","25.48","71.56","0.0","0"],
    [1718162,"2026-09-01 01:10:00","6728","1.33","274.4","1.666","277.2","1020.893","25.42","71.53","0.0","0"],
    [1718163,"2026-09-01 01:20:00","6729","1.128","271.1","1.568","271.6","1020.841","25.43","71.62","0.0","0"],
    [1718164,"2026-09-01 01:30:00","6730","1.182","272.2","1.633","268.8","1020.753","25.42","71.73","0.0","0"],
    [1718165,"2026-09-01 01:40:00","6731","0.993","275.1","1.535","278.9","1020.7310000000001","25.36","72.13","0.0","0"],
    [1718166,"2026-09-01 01:50:00","6732","0.7809999999999999","277.3","1.633","309.6","1020.7360000000001","25.28","72.6","0.0","0"],
    [1718167,"2026-09-01 02:00:00","6733","0.196","254.1","1.078","263.9","1020.685","25.19","73.13","0.0","0"],
    [1718168,"2026-09-01 02:10:00","6734","0.442","260.7","1.078","272.5","1020.623","25.1","73.4","0.0","0"],
    [1718169,"2026-09-01 02:20:00","6735","0.271","257.0","1.633","307.6","1020.512","25.09","73.45","0.0","0"],
    [1718170,"2026-09-01 02:30:00","6736","0.596","295.1","1.535","314.0","1020.3560000000001","25.03","73.66","0.0","0"],
    [1718171,"2026-09-01 02:40:00","6737","0.32299999999999995","251.9","1.143","253.7","1020.257","25.02","73.93","0.0","0"],
    [1718172,"2026-09-01 02:50:00","6738","0.491","254.1","0.915","228.2","1020.212","25.0","74.24","0.0","0"],
    [1718173,"2026-09-01 03:00:00","6739","0.365","291.5","1.601","308.7","1020.17","24.95","75.02","0.0","0"],
    [1718174,"2026-09-01 03:10:00","6740","1.016","285.4","1.9269999999999998","303.5","1020.1210000000001","24.85","74.43","0.0","0"],
    [1718175,"2026-09-01 03:20:00","6741","1.446","297.6","2.123","303.0","1020.073","24.88","74.12","0.0","0"],
    [1718176,"2026-09-01 03:30:00","6742","0.625","283.8","1.4369999999999998","293.4","1020.0139999999999","24.9","73.78","0.0","0"],
    [1718177,"2026-09-01 03:40:00","6743","0.01","220.2","0.261","199.6","1019.977","24.91","75.35","0.0","0"],
    [1718178,"2026-09-01 03:50:00","6744","0.0","0.0","0.0","0.0","1019.942","24.76","75.33","0.0","0"],
    [1718179,"2026-09-01 04:00:00","6745","0.45","288.7","1.829","285.6","1019.913","24.66","75.01","0.0","0"],
    [1718180,"2026-09-01 04:10:00","6746","1.3940000000000001","296.7","1.895","285.1","1019.8510000000001","24.67","73.05","0.0","0"],
    [1718181,"2026-09-01 04:20:00","6747","1.675","296.4","2.254","295.4","1019.816","24.82","72.32","0.0","0"],
    [1718182,"2026-09-01 04:30:00","6748","1.8130000000000002","304.6","2.319","312.0","1019.804","24.86","72.05","0.0","0"],
    [1718183,"2026-09-01 04:40:00","6749","1.547","307.5","2.0580000000000003","307.2","1019.797","24.94","71.03","0.0","0"],
    [1718184,"2026-09-01 04:50:00","6750","1.545","310.0","2.189","307.2","1019.7819999999999","25.02","70.36","0.0","0"],
    [1718185,"2026-09-01 05:00:00","6751","1.5390000000000001","294.2","2.0580000000000003","302.4","1019.7339999999999","24.97","69.7","0.0","0"],
    [1718186,"2026-09-01 05:10:00","6752","1.6219999999999999","288.5","2.123","294.9","1019.743","24.91","69.66","0.0","0"],
    [1718187,"2026-09-01 05:20:00","6753","1.473","288.8","1.797","288.0","1019.704","24.88","70.22","1.48","0"],
    [1718188,"2026-09-01 05:30:00","6754","1.124","289.3","1.535","290.9","1019.732","24.8","70.66","8.17","0"],
    [1718189,"2026-09-01 05:40:00","6755","0.175","300.3","0.882","313.0","1019.7310000000001","25.01","72.74","19.21","0"],
    [1718190,"2026-09-01 05:50:00","6756","0.07200000000000001","150.0","0.7509999999999999","155.7","1019.796","24.81","73.13","22.55","0"],
    [1718191,"2026-09-01 06:00:00","6757","0.0","0.0","0.0","0.0","1019.867","24.7","72.8","40.09","0"],
    [1718192,"2026-09-01 06:10:00","6758","0.0","0.0","0.0","0.0","1019.935","25.01","70.98","88.2","0"],
    [1718193,"2026-09-01 06:20:00","6759","0.626","256.9","1.4369999999999998","245.8","1019.9889999999999","25.76","67.54","115.0","0"],
    [1718194,"2026-09-01 06:30:00","6760","0.863","244.5","1.666","261.1","1020.023","25.94","66.36","141.7","0"],
    [1718195,"2026-09-01 06:40:00","6761","1.232","275.9","1.699","277.6","1020.008","26.42","64.72","172.0","0"],
    [1718196,"2026-09-01 06:50:00","6762","1.692","311.5","2.7769999999999997","316.5","1019.868","26.59","63.19","206.1","0"],
    [1718197,"2026-09-01 07:00:00","6763","1.8659999999999999","332.6","3.0380000000000003","349.6","1019.7239999999999","26.27","64.98","239.6","0"],
    [1718198,"2026-09-01 07:10:00","6764","0.917","77.22","2.9730000000000003","347.0","1019.813","26.19","67.46","271.8","0"],
    [1718199,"2026-09-01 07:20:00","6765","1.093","95.6","1.568","109.6","1019.904","25.88","70.04","307.2","0"],
    [1718200,"2026-09-01 07:30:00","6766","1.501","116.9","2.319","101.8","1019.957","25.79","70.94","338.0","0"],
    [1718201,"2026-09-01 07:40:00","6767","1.9040000000000001","91.3","2.352","100.6","1019.9110000000001","25.68","70.43","368.7","0"],
    [1718202,"2026-09-01 07:50:00","6768","1.82","96.7","2.254","95.8","1019.909","25.86","69.08","398.0","0"],
    [1718203,"2026-09-01 08:00:00","6769","1.433","97.3","1.9269999999999998","99.1","1019.937","26.07","68.09","425.8","0"],
    [1718204,"2026-09-01 08:10:00","6770","1.588","111.4","2.254","105.8","1019.959","26.1","67.8","459.9","0"],
    [1718205,"2026-09-01 08:20:00","6771","1.6640000000000001","111.5","2.254","119.1","1020.056","26.17","67.24","485.0","0"],
    [1718206,"2026-09-01 08:30:00","6772","2.339","122.3","3.005","133.6","1020.194","26.16","67.66","514.4","0"],
    [1718207,"2026-09-01 08:40:00","6773","3.02","137.9","3.43","136.8","1020.294","25.94","70.16","548.3","0"],
    [1718208,"2026-09-01 08:50:00","6774","3.1639999999999997","148.3","3.593","148.1","1020.3810000000001","25.99","70.71","571.5","0"],
    [1718209,"2026-09-01 09:00:00","6775","3.3169999999999997","147.3","3.985","144.0","1020.4760000000001","26.04","71.05","600.2","0"],
    [1718210,"2026-09-01 09:10:00","6776","4.5489999999999995","154.8","5.227","158.8","1020.613","25.92","72.84","624.2","0"],
    [1718211,"2026-09-01 09:20:00","6777","4.843","154.9","5.357","157.3","1020.7410000000001","25.85","74.98","651.9","0"],
    [1718212,"2026-09-01 09:30:00","6778","4.771","160.2","5.357","167.1","1020.8969999999999","25.84","76.62","677.1","0"],
    [1718213,"2026-09-01 09:40:00","6779","5.268","166.7","5.684","166.0","1021.028","25.93","76.31","697.4","0"],
    [1718214,"2026-09-01 09:50:00","6780","4.902","169.9","5.945","177.6","1021.069","26.07","75.33","714.9","0"],
    [1718215,"2026-09-01 10:00:00","6781","4.5280000000000005","178.8","6.109","170.6","1021.235","26.3","71.66","732.5","0"],
    [1718216,"2026-09-01 10:10:00","6782","4.3660000000000005","181.0","5.945","171.0","1021.312","26.75","69.26","749.4","0"],
    [1718217,"2026-09-01 10:20:00","6783","4.441","182.9","5.88","173.0","1021.2810000000001","26.82","69.11","767.4","0"],
    [1718218,"2026-09-01 10:30:00","6784","5.041","185.2","6.403","186.0","1021.3430000000001","26.9","68.19","788.2","0"],
    [1718219,"2026-09-01 10:40:00","6785","4.855","178.0","5.978","178.8","1021.207","26.78","70.36","813.0","0"],
    [1718220,"2026-09-01 10:50:00","6786","4.715","187.2","6.207000000000001","187.7","1021.1489999999999","26.95","69.26","718.1","0"],
    [1718221,"2026-09-01 11:00:00","6787","4.312","183.3","5.521","172.4","1021.1610000000001","27.0","69.02","593.5","0"],
    [1718222,"2026-09-01 11:10:00","6788","4.506","184.0","6.272","167.6","1021.1510000000001","26.93","68.75","600.8","0"],
    [1718223,"2026-09-01 11:20:00","6789","5.025","186.9","6.435","196.2","1021.025","27.06","67.96","729.2","0"],
    [1718224,"2026-09-01 11:30:00","6790","5.274","186.6","7.644","188.7","1020.967","27.05","68.71","880.0","0"],
    [1718225,"2026-09-01 11:40:00","6791","5.098","183.3","6.795","195.9","1020.972","27.21","66.78","941.0","0"],
    [1718226,"2026-09-01 11:50:00","6792","5.109","183.5","7.0889999999999995","193.3","1020.8610000000001","27.05","68.09","463.5","0"],
    [1718227,"2026-09-01 12:00:00","6793","5.044","184.3","6.5329999999999995","182.0","1020.9","26.91","68.82","655.3","0"],
    [1718228,"2026-09-01 12:10:00","6794","5.072","182.5","6.957999999999999","172.6","1020.8510000000001","27.05","68.24","707.3","0"],
    [1718229,"2026-09-01 12:20:00","6795","4.979","175.8","6.7620000000000005","179.1","1020.7819999999999","26.77","70.41","485.4","0"],
    [1718230,"2026-09-01 12:30:00","6796","5.263","179.5","6.7620000000000005","171.9","1020.6360000000001","26.63","68.55","324.6","0"],
    [1718231,"2026-09-01 12:40:00","6797","4.497","177.4","5.422999999999999","172.4","1020.5310000000001","26.9","66.89","631.9","0"],
    [1718232,"2026-09-01 12:50:00","6798","4.88","174.4","5.945","164.2","1020.447","26.81","67.92","676.7","0"],
    [1718233,"2026-09-01 13:00:00","6799","5.4110000000000005","173.7","6.37","172.5","1020.395","26.62","68.13","480.2","0"],
    [1718234,"2026-09-01 13:10:00","6800","5.185","179.5","6.468","176.4","1020.3489999999999","26.78","64.11","284.9","0"],
    [1718235,"2026-09-01 13:20:00","6801","4.9030000000000005","180.7","6.272","184.3","1020.143","26.65","66.9","303.5","0"],
    [1718236,"2026-09-01 13:30:00","6802","5.05","183.8","6.042999999999999","182.9","1020.075","26.71","66.92","280.6","0"],
    [1718237,"2026-09-01 13:40:00","6803","5.084","186.6","6.403","188.3","1019.955","26.78","67.61","256.2","0"],
    [1718238,"2026-09-01 13:50:00","6804","5.05","184.1","6.827000000000001","191.2","1019.778","26.62","69.55","252.4","0"],
    [1718239,"2026-09-01 14:00:00","6805","4.348","174.1","5.651","168.1","1019.451","26.52","72.22","238.1","0"],
    [1718240,"2026-09-01 14:10:00","6806","4.325","184.9","6.207000000000001","193.3","1019.638","26.24","74.19","219.3","0"],
    [1718241,"2026-09-01 14:20:00","6807","5.166","187.8","6.795","193.4","1019.825","26.48","68.84","370.9","0"],
    [1718242,"2026-09-01 14:30:00","6808","5.412999999999999","183.4","7.252000000000001","196.8","1019.7660000000001","26.7","64.82","274.3","0"],
    [1718243,"2026-09-01 14:40:00","6809","5.004","184.9","6.631","193.2","1019.7260000000001","26.74","63.51","216.9","0"],
    [1718244,"2026-09-01 14:50:00","6810","5.207000000000001","185.8","6.86","192.4","1019.7260000000001","26.78","64.95","250.8","0"],
    [1718245,"2026-09-01 15:00:00","6811","4.457","183.4","5.978","193.7","1019.632","26.66","65.52","142.6","0"],
    [1718246,"2026-09-01 15:10:00","6812","3.735","183.6","4.638999999999999","194.5","1019.3789999999999","26.46","68.54","140.5","0"],
    [1718247,"2026-09-01 15:20:00","6813","4.1930000000000005","186.7","5.129","186.5","1019.331","26.34","69.66","93.1","0"],
    [1718248,"2026-09-01 15:30:00","6814","4.453","189.3","6.0760000000000005","189.2","1019.299","26.28","68.9","175.6","0"],
    [1718249,"2026-09-01 15:40:00","6815","4.595","186.3","6.011","189.2","1019.3639999999999","26.63","66.17","464.5","0"],
    [1718250,"2026-09-01 15:50:00","6816","4.601","178.8","5.684","188.7","1019.178","26.65","64.8","359.5","0"],
    [1718251,"2026-09-01 16:00:00","6817","4.7","185.6","5.847","187.9","1019.2460000000001","26.78","63.93","347.0","0"],
    [1718252,"2026-09-01 16:10:00","6818","4.806","181.2","6.272","172.2","1019.1510000000001","26.67","63.97","205.4","0"],
    [1718253,"2026-09-01 16:20:00","6819","4.126","187.3","5.553","175.5","1019.084","26.6","64.4","189.8","0"],
    [1718254,"2026-09-01 16:30:00","6820","3.861","181.8","5.455","186.8","1019.002","26.64","63.39","157.1","0"],
    [1718255,"2026-09-01 16:40:00","6821","3.907","176.5","4.638999999999999","173.6","1018.709","26.36","68.06","104.3","0"],
    [1718256,"2026-09-01 16:50:00","6822","4.011","190.4","5.455","186.5","1018.845","26.24","66.49","85.8","0"],
    [1718257,"2026-09-01 17:00:00","6823","3.725","192.7","5.2589999999999995","190.6","1018.9580000000001","26.4","65.32","94.2","0"],
    [1718258,"2026-09-01 17:10:00","6824","3.4989999999999997","199.8","5.227","196.6","1018.8560000000001","26.72","62.12","92.2","0"],
    [1718259,"2026-09-01 17:20:00","6825","3.266","197.3","5.2589999999999995","193.8","1018.738","26.8","62.19","99.9","0"],
    [1718260,"2026-09-01 17:30:00","6826","3.267","203.0","5.129","201.2","1018.653","26.84","61.73","63.72","0"],
    [1718261,"2026-09-01 17:40:00","6827","2.506","213.2","4.41","193.2","1018.584","26.88","62.06","32.76","0"],
    [1718262,"2026-09-01 17:50:00","6828","1.723","249.7","4.181","278.0","1018.4689999999999","26.97","61.25","37.33","0"],
    [1718263,"2026-09-01 18:00:00","6829","1.8330000000000002","254.1","3.7239999999999998","282.7","1018.172","26.92","60.23","32.95","0"],
    [1718264,"2026-09-01 18:10:00","6830","1.09","271.1","1.829","298.9","1017.995","26.9","60.25","15.91","0"],
    [1718265,"2026-09-01 18:20:00","6831","1.263","244.5","2.0909999999999997","227.9","1017.8969999999999","26.89","60.43","8.74","0"],
    [1718266,"2026-09-01 18:30:00","6832","1.73","225.3","4.541","213.5","1018.0310000000001","26.85","60.72","0.654","0"],
    [1718267,"2026-09-01 18:40:00","6833","3.6310000000000002","196.7","5.749","201.0","1018.18","26.69","62.46","0.0","0"],
    [1718268,"2026-09-01 18:50:00","6834","3.8369999999999997","200.9","5.325","209.8","1018.257","26.5","63.42","0.0","0"],
    [1718269,"2026-09-01 19:00:00","6835","3.7939999999999996","200.5","5.1610000000000005","201.1","1018.2130000000001","26.36","63.99","0.0","0"],
    [1718270,"2026-09-01 19:10:00","6836","3.423","204.9","4.671","223.6","1018.2310000000001","26.44","63.56","0.0","0"],
    [1718271,"2026-09-01 19:20:00","6837","3.38","201.8","5.1610000000000005","209.3","1018.335","26.4","63.98","0.0","0"],
    [1718272,"2026-09-01 19:30:00","6838","2.299","208.4","4.312","195.1","1018.278","26.39","63.8","0.0","0"],
    [1718273,"2026-09-01 19:40:00","6839","2.149","207.6","3.463","207.8","1018.404","26.4","64.14","0.0","0"],
    [1718274,"2026-09-01 19:50:00","6840","1.672","246.7","3.887","259.2","1018.5889999999999","26.39","63.4","0.0","0"],
    [1718275,"2026-09-01 20:00:00","6841","1.757","227.8","3.365","257.6","1018.7660000000001","26.38","64.03","0.0","0"],
    [1718276,"2026-09-01 20:10:00","6842","2.184","214.6","4.475","194.9","1018.975","26.33","64.96","0.0","0"],
    [1718277,"2026-09-01 20:20:00","6843","3.574","198.7","5.39","203.1","1019.039","26.23","65.56","0.0","0"],
    [1718278,"2026-09-01 20:30:00","6844","3.083","203.1","4.279","193.9","1018.97","26.11","66.46","0.0","0"],
    [1718279,"2026-09-01 20:40:00","6845","2.213","210.0","3.6910000000000003","193.3","1019.045","26.13","66.34","0.0","0"],
    [1718280,"2026-09-01 20:50:00","6846","2.061","208.8","3.365","199.5","1019.117","26.1","66.86","0.0","0"],
    [1718281,"2026-09-01 21:00:00","6847","2.424","205.6","4.2139999999999995","197.8","1019.207","26.06","66.99","0.0","0"],
    [1718282,"2026-09-01 21:10:00","6848","2.795","200.7","3.9530000000000003","199.8","1019.258","26.04","67.42","0.0","0"],
    [1718283,"2026-09-01 21:20:00","6849","2.2569999999999997","206.9","3.855","208.6","1019.323","26.03","67.44","0.0","0"],
    [1718284,"2026-09-01 21:30:00","6850","2.654","202.6","3.887","207.6","1019.382","26.03","67.83","0.0","0"],
    [1718285,"2026-09-01 21:40:00","6851","2.037","227.1","3.397","202.0","1019.5","26.0","68.23","0.0","0"],
    [1718286,"2026-09-01 21:50:00","6852","1.7919999999999998","264.9","3.201","276.0","1019.4789999999999","25.97","68.33","0.0","0"],
    [1718287,"2026-09-01 22:00:00","6853","1.953","285.2","2.907","274.5","1019.453","25.85","68.8","0.0","0"],
    [1718288,"2026-09-01 22:10:00","6854","2.145","279.2","3.0380000000000003","275.2","1019.5319999999999","25.75","68.88","0.0","0"],
    [1718289,"2026-09-01 22:20:00","6855","1.995","281.8","2.842","268.1","1019.725","25.71","68.98","0.0","0"],
    [1718290,"2026-09-01 22:30:00","6856","1.652","290.7","2.548","284.7","1019.816","25.66","69.11","0.0","0"],
    [1718291,"2026-09-01 22:40:00","6857","1.4680000000000002","280.7","2.45","280.5","1019.888","25.59","69.17","0.0","0"],
    [1718292,"2026-09-01 22:50:00","6858","2.026","275.3","2.907","272.2","1020.0089999999999","25.53","68.89","0.0","0"],
    [1718293,"2026-09-01 23:00:00","6859","1.78","272.1","2.6460000000000004","270.9","1020.091","25.42","68.97","0.0","0"],
    [1718294,"2026-09-01 23:10:00","6860","1.893","282.6","2.7110000000000003","281.5","1020.118","25.32","69.14","0.0","0"],
    [1718295,"2026-09-01 23:20:00","6861","1.694","296.3","2.287","289.0","1020.203","25.32","69.19","0.0","0"],
    [1718296,"2026-09-01 23:30:00","6862","1.597","280.4","2.5810000000000004","276.4","1020.25","25.31","68.95","0.0","0"],
    [1718297,"2026-09-01 23:40:00","6863","1.9280000000000002","290.0","2.7110000000000003","295.9","1020.1439999999999","25.29","69.24","0.0","0"],
    [1718298,"2026-09-01 23:50:00","6864","1.4269999999999998","272.3","2.417","277.3","1020.132","25.32","69.05","0.0","0"],
    [1718299,"2026-09-02 00:00:00","6865","1.521","264.7","2.385","270.7","1020.1239999999999","25.36","68.6","0.0","0"],
    [1718300,"2026-09-02 00:10:00","6866","1.649","278.1","2.221","284.7","1020.176","25.27","69.4","0.0","0"],
    [1718301,"2026-09-02 00:20:00","6867","1.702","275.9","2.189","280.6","1020.253","25.18","69.26","0.0","0"],
    [1718302,"2026-09-02 00:30:00","6868","1.48","276.4","2.0580000000000003","277.6","1020.257","25.19","69.48","0.0","0"],
    [1718303,"2026-09-02 00:40:00","6869","1.661","272.4","2.156","269.1","1020.2239999999999","25.12","69.23","0.0","0"],
    [1718304,"2026-09-02 00:50:00","6870","1.556","291.1","2.156","290.0","1020.153","25.03","69.58","0.0","0"],
    [1718305,"2026-09-02 01:00:00","6871","1.617","300.1","2.254","296.4","1020.117","25.03","70.13","0.0","0"],
    [1718306,"2026-09-02 01:10:00","6872","1.854","320.9","2.483","323.0","1020.0269999999999","25.1","71.14","0.0","0"],
    [1718307,"2026-09-02 01:20:00","6873","1.849","317.7","2.5810000000000004","321.9","1019.939","25.11","71.8","0.0","0"],
    [1718308,"2026-09-02 01:30:00","6874","1.495","299.2","2.123","304.5","1019.921","25.14","71.87","0.0","0"],
    [1718309,"2026-09-02 01:40:00","6875","1.473","281.2","2.025","289.2","1019.905","25.11","71.17","0.0","0"],
    [1718310,"2026-09-02 01:50:00","6876","1.6780000000000002","297.9","2.548","300.7","1019.852","25.01","71.3","0.0","0"]
]}
